Terminal Aerodrome Forecast
Issued by NWS

Home | Current Version | Previous Version | Text Only | Print | Product List | Glossary On
Versions: 1 2 3 4 5 6 7 8 9 10 11 12
000
FTUS45 KPIH 191127
TAFSUN
TAF
KSUN 191127Z 1912/2018 31010KT P6SM SKC
     FM191900 16008KT P6SM FEW200
     FM192200 22010KT P6SM FEW200
     FM200400 31011KT P6SM SCT080 BKN180
     FM201100 31010KT P6SM VCSH SCT040 BKN080
      AMD LTD TO CLD VIS AND WIND TIL 191300=

USA.gov is the U.S. government's official web portal to all federal, state and local government web resources and services.